sensor_id;sensor_type;location;lat;lon;timestamp;temperature;humidity
23137;DHT22;11737;50.558;7.258;2022-09-01T00:01:50;18.40;94.80
23137;DHT22;11737;50.558;7.258;2022-09-01T00:04:21;18.40;94.60
23137;DHT22;11737;50.558;7.258;2022-09-01T00:06:51;18.30;94.20
23137;DHT22;11737;50.558;7.258;2022-09-01T00:09:22;18.30;94.40
23137;DHT22;11737;50.558;7.258;2022-09-01T00:11:52;18.20;95.10
23137;DHT22;11737;50.558;7.258;2022-09-01T00:14:26;18.10;95.20
23137;DHT22;11737;50.558;7.258;2022-09-01T00:16:54;18.00;95.70
23137;DHT22;11737;50.558;7.258;2022-09-01T00:19:23;17.90;95.90
23137;DHT22;11737;50.558;7.258;2022-09-01T00:21:51;18.00;95.70
23137;DHT22;11737;50.558;7.258;2022-09-01T00:24:19;18.00;95.80
23137;DHT22;11737;50.558;7.258;2022-09-01T00:26:48;18.00;95.90
23137;DHT22;11737;50.558;7.258;2022-09-01T00:29:15;17.90;96.10
23137;DHT22;11737;50.558;7.258;2022-09-01T00:31:43;17.90;96.00
23137;DHT22;11737;50.558;7.258;2022-09-01T00:34:11;17.90;96.10
23137;DHT22;11737;50.558;7.258;2022-09-01T00:36:39;17.80;96.40
23137;DHT22;11737;50.558;7.258;2022-09-01T00:39:07;17.70;96.60
23137;DHT22;11737;50.558;7.258;2022-09-01T00:41:37;17.60;97.00
23137;DHT22;11737;50.558;7.258;2022-09-01T00:44:24;17.50;97.30
23137;DHT22;11737;50.558;7.258;2022-09-01T00:46:54;17.40;96.90
23137;DHT22;11737;50.558;7.258;2022-09-01T00:49:35;17.30;97.10
23137;DHT22;11737;50.558;7.258;2022-09-01T00:52:10;17.30;97.40
23137;DHT22;11737;50.558;7.258;2022-09-01T00:54:32;17.20;97.70
23137;DHT22;11737;50.558;7.258;2022-09-01T00:57:01;17.10;98.00
23137;DHT22;11737;50.558;7.258;2022-09-01T00:59:30;17.00;98.20
23137;DHT22;11737;50.558;7.258;2022-09-01T01:01:58;16.90;98.50
23137;DHT22;11737;50.558;7.258;2022-09-01T01:04:26;16.90;98.80
23137;DHT22;11737;50.558;7.258;2022-09-01T01:06:57;16.80;97.70
23137;DHT22;11737;50.558;7.258;2022-09-01T01:09:29;16.80;98.40
23137;DHT22;11737;50.558;7.258;2022-09-01T01:11:58;16.80;97.90
23137;DHT22;11737;50.558;7.258;2022-09-01T01:14:27;16.80;97.80
23137;DHT22;11737;50.558;7.258;2022-09-01T01:16:57;16.90;98.30
23137;DHT22;11737;50.558;7.258;2022-09-01T01:19:43;16.90;98.00
23137;DHT22;11737;50.558;7.258;2022-09-01T01:22:49;16.90;98.20
23137;DHT22;11737;50.558;7.258;2022-09-01T01:25:42;16.90;99.20
23137;DHT22;11737;50.558;7.258;2022-09-01T01:28:14;16.80;99.10
23137;DHT22;11737;50.558;7.258;2022-09-01T01:30:44;16.70;99.80
23137;DHT22;11737;50.558;7.258;2022-09-01T01:33:13;16.70;99.90
23137;DHT22;11737;50.558;7.258;2022-09-01T01:35:40;16.60;99.90
23137;DHT22;11737;50.558;7.258;2022-09-01T01:38:09;16.60;99.90
23137;DHT22;11737;50.558;7.258;2022-09-01T01:40:37;16.60;99.90
23137;DHT22;11737;50.558;7.258;2022-09-01T01:43:05;16.50;99.90
23137;DHT22;11737;50.558;7.258;2022-09-01T01:45:33;16.50;99.90
23137;DHT22;11737;50.558;7.258;2022-09-01T01:48:00;16.40;99.90
23137;DHT22;11737;50.558;7.258;2022-09-01T01:50:31;16.30;99.90
23137;DHT22;11737;50.558;7.258;2022-09-01T01:53:06;16.30;99.90
23137;DHT22;11737;50.558;7.258;2022-09-01T01:55:34;16.20;99.90
23137;DHT22;11737;50.558;7.258;2022-09-01T01:58:01;16.20;99.90
23137;DHT22;11737;50.558;7.258;2022-09-01T02:00:32;16.20;99.90
23137;DHT22;11737;50.558;7.258;2022-09-01T02:03:00;16.20;99.90
23137;DHT22;11737;50.558;7.258;2022-09-01T02:05:30;16.10;99.90
23137;DHT22;11737;50.558;7.258;2022-09-01T02:08:02;16.10;99.90
23137;DHT22;11737;50.558;7.258;2022-09-01T02:10:38;16.00;99.90
23137;DHT22;11737;50.558;7.258;2022-09-01T02:13:02;15.90;99.90
23137;DHT22;11737;50.558;7.258;2022-09-01T02:15:51;15.90;99.90
23137;DHT22;11737;50.558;7.258;2022-09-01T02:18:34;15.80;99.90
23137;DHT22;11737;50.558;7.258;2022-09-01T02:21:04;15.80;99.90
23137;DHT22;11737;50.558;7.258;2022-09-01T02:23:36;15.80;99.90
23137;DHT22;11737;50.558;7.258;2022-09-01T02:26:06;15.80;99.90
23137;DHT22;11737;50.558;7.258;2022-09-01T02:28:36;15.80;99.90
23137;DHT22;11737;50.558;7.258;2022-09-01T02:31:05;15.80;99.90
23137;DHT22;11737;50.558;7.258;2022-09-01T02:33:36;15.70;99.90
23137;DHT22;11737;50.558;7.258;2022-09-01T02:36:11;15.60;99.90
23137;DHT22;11737;50.558;7.258;2022-09-01T02:38:41;15.60;99.90
23137;DHT22;11737;50.558;7.258;2022-09-01T02:41:11;15.60;99.90
23137;DHT22;11737;50.558;7.258;2022-09-01T02:43:41;15.60;99.90
23137;DHT22;11737;50.558;7.258;2022-09-01T02:46:13;15.60;99.90
23137;DHT22;11737;50.558;7.258;2022-09-01T02:48:43;15.50;99.90
23137;DHT22;11737;50.558;7.258;2022-09-01T02:51:14;15.40;99.90
23137;DHT22;11737;50.558;7.258;2022-09-01T02:53:43;15.40;99.90
23137;DHT22;11737;50.558;7.258;2022-09-01T02:56:12;15.30;99.90
23137;DHT22;11737;50.558;7.258;2022-09-01T02:58:41;15.40;99.90
23137;DHT22;11737;50.558;7.258;2022-09-01T03:01:21;15.40;99.90
23137;DHT22;11737;50.558;7.258;2022-09-01T03:03:52;15.30;99.90
23137;DHT22;11737;50.558;7.258;2022-09-01T03:06:21;15.30;99.90
23137;DHT22;11737;50.558;7.258;2022-09-01T03:08:56;15.30;99.90
23137;DHT22;11737;50.558;7.258;2022-09-01T03:11:21;15.30;99.90
23137;DHT22;11737;50.558;7.258;2022-09-01T03:13:50;15.30;99.90
23137;DHT22;11737;50.558;7.258;2022-09-01T03:16:19;15.20;99.90
23137;DHT22;11737;50.558;7.258;2022-09-01T03:18:47;15.20;99.90
23137;DHT22;11737;50.558;7.258;2022-09-01T03:21:16;15.20;99.90
23137;DHT22;11737;50.558;7.258;2022-09-01T03:23:45;15.20;99.90
23137;DHT22;11737;50.558;7.258;2022-09-01T03:26:14;15.10;99.90
23137;DHT22;11737;50.558;7.258;2022-09-01T03:28:44;15.00;99.90
23137;DHT22;11737;50.558;7.258;2022-09-01T03:31:12;15.00;99.90
23137;DHT22;11737;50.558;7.258;2022-09-01T03:33:40;14.90;99.90
23137;DHT22;11737;50.558;7.258;2022-09-01T03:36:08;14.70;99.90
23137;DHT22;11737;50.558;7.258;2022-09-01T03:38:37;14.70;99.90
23137;DHT22;11737;50.558;7.258;2022-09-01T03:41:04;14.70;99.90
23137;DHT22;11737;50.558;7.258;2022-09-01T03:43:33;14.70;99.90
23137;DHT22;11737;50.558;7.258;2022-09-01T03:46:00;14.70;99.90
23137;DHT22;11737;50.558;7.258;2022-09-01T03:48:29;14.80;99.90
23137;DHT22;11737;50.558;7.258;2022-09-01T03:50:58;14.80;99.90
23137;DHT22;11737;50.558;7.258;2022-09-01T03:53:32;14.70;99.90
23137;DHT22;11737;50.558;7.258;2022-09-01T03:56:02;14.70;99.90
23137;DHT22;11737;50.558;7.258;2022-09-01T03:58:31;14.70;99.90
23137;DHT22;11737;50.558;7.258;2022-09-01T04:01:00;14.80;99.90
23137;DHT22;11737;50.558;7.258;2022-09-01T04:03:31;14.90;99.90
23137;DHT22;11737;50.558;7.258;2022-09-01T04:06:00;14.90;99.90
23137;DHT22;11737;50.558;7.258;2022-09-01T04:08:29;14.90;99.90
23137;DHT22;11737;50.558;7.258;2022-09-01T04:11:03;14.90;99.90
23137;DHT22;11737;50.558;7.258;2022-09-01T04:13:33;14.70;99.90
23137;DHT22;11737;50.558;7.258;2022-09-01T04:16:02;14.60;99.90
23137;DHT22;11737;50.558;7.258;2022-09-01T04:18:31;14.40;99.90
23137;DHT22;11737;50.558;7.258;2022-09-01T04:20:59;14.40;99.90
23137;DHT22;11737;50.558;7.258;2022-09-01T04:23:29;14.30;99.90
23137;DHT22;11737;50.558;7.258;2022-09-01T04:26:09;14.20;99.90
23137;DHT22;11737;50.558;7.258;2022-09-01T04:28:42;14.20;99.90
23137;DHT22;11737;50.558;7.258;2022-09-01T04:31:15;14.10;99.90
23137;DHT22;11737;50.558;7.258;2022-09-01T04:33:46;14.00;99.90
23137;DHT22;11737;50.558;7.258;2022-09-01T04:36:19;14.00;99.90
23137;DHT22;11737;50.558;7.258;2022-09-01T04:38:57;14.00;99.90
23137;DHT22;11737;50.558;7.258;2022-09-01T04:41:26;13.90;99.90
23137;DHT22;11737;50.558;7.258;2022-09-01T04:43:55;13.90;99.90
23137;DHT22;11737;50.558;7.258;2022-09-01T04:46:24;13.90;99.90
23137;DHT22;11737;50.558;7.258;2022-09-01T04:48:54;13.90;99.90
23137;DHT22;11737;50.558;7.258;2022-09-01T04:51:23;13.90;99.90
23137;DHT22;11737;50.558;7.258;2022-09-01T04:53:54;13.90;99.90
23137;DHT22;11737;50.558;7.258;2022-09-01T04:56:24;13.90;99.90
23137;DHT22;11737;50.558;7.258;2022-09-01T04:58:53;13.90;99.90
23137;DHT22;11737;50.558;7.258;2022-09-01T05:01:24;13.90;99.90
23137;DHT22;11737;50.558;7.258;2022-09-01T05:03:52;13.90;99.90
23137;DHT22;11737;50.558;7.258;2022-09-01T05:06:24;13.90;99.90
23137;DHT22;11737;50.558;7.258;2022-09-01T05:08:53;13.90;99.90
23137;DHT22;11737;50.558;7.258;2022-09-01T05:11:22;13.90;99.90
23137;DHT22;11737;50.558;7.258;2022-09-01T05:13:51;13.90;99.90
23137;DHT22;11737;50.558;7.258;2022-09-01T05:16:20;14.00;99.90
23137;DHT22;11737;50.558;7.258;2022-09-01T05:18:49;14.10;99.90
23137;DHT22;11737;50.558;7.258;2022-09-01T05:21:19;14.10;99.90
23137;DHT22;11737;50.558;7.258;2022-09-01T05:23:50;14.10;99.90
23137;DHT22;11737;50.558;7.258;2022-09-01T05:26:20;14.20;99.90
23137;DHT22;11737;50.558;7.258;2022-09-01T05:28:51;14.20;99.90
23137;DHT22;11737;50.558;7.258;2022-09-01T05:31:24;14.30;99.90
23137;DHT22;11737;50.558;7.258;2022-09-01T05:33:54;14.30;99.90
23137;DHT22;11737;50.558;7.258;2022-09-01T05:36:23;14.40;99.90
23137;DHT22;11737;50.558;7.258;2022-09-01T05:38:52;14.40;99.90
23137;DHT22;11737;50.558;7.258;2022-09-01T05:41:20;14.60;99.90
23137;DHT22;11737;50.558;7.258;2022-09-01T05:43:50;14.50;99.90
23137;DHT22;11737;50.558;7.258;2022-09-01T05:46:20;14.60;99.90
23137;DHT22;11737;50.558;7.258;2022-09-01T05:48:50;14.80;99.90
23137;DHT22;11737;50.558;7.258;2022-09-01T05:51:23;15.00;99.90
23137;DHT22;11737;50.558;7.258;2022-09-01T05:53:54;15.10;99.90
23137;DHT22;11737;50.558;7.258;2022-09-01T05:56:25;15.20;99.90
23137;DHT22;11737;50.558;7.258;2022-09-01T05:58:53;15.40;99.90
23137;DHT22;11737;50.558;7.258;2022-09-01T06:01:25;15.50;99.90
23137;DHT22;11737;50.558;7.258;2022-09-01T06:03:55;15.70;99.90
23137;DHT22;11737;50.558;7.258;2022-09-01T06:06:35;15.90;99.90
23137;DHT22;11737;50.558;7.258;2022-09-01T06:08:54;16.10;99.90
23137;DHT22;11737;50.558;7.258;2022-09-01T06:11:26;16.30;99.90
23137;DHT22;11737;50.558;7.258;2022-09-01T06:13:55;16.50;99.90
23137;DHT22;11737;50.558;7.258;2022-09-01T06:16:25;16.70;99.90
23137;DHT22;11737;50.558;7.258;2022-09-01T06:18:55;16.70;99.90
23137;DHT22;11737;50.558;7.258;2022-09-01T06:21:25;16.80;99.90
23137;DHT22;11737;50.558;7.258;2022-09-01T06:23:55;16.80;99.90
23137;DHT22;11737;50.558;7.258;2022-09-01T06:26:26;16.90;99.90
23137;DHT22;11737;50.558;7.258;2022-09-01T06:28:57;17.00;99.90
23137;DHT22;11737;50.558;7.258;2022-09-01T06:31:27;17.20;99.90
23137;DHT22;11737;50.558;7.258;2022-09-01T06:33:57;17.30;99.90
23137;DHT22;11737;50.558;7.258;2022-09-01T06:36:25;17.40;99.90
23137;DHT22;11737;50.558;7.258;2022-09-01T06:38:53;17.50;99.90
23137;DHT22;11737;50.558;7.258;2022-09-01T06:41:22;17.70;99.90
23137;DHT22;11737;50.558;7.258;2022-09-01T06:43:50;17.80;99.90
23137;DHT22;11737;50.558;7.258;2022-09-01T06:46:20;17.90;99.90
23137;DHT22;11737;50.558;7.258;2022-09-01T06:48:49;18.10;99.90
23137;DHT22;11737;50.558;7.258;2022-09-01T06:51:20;18.20;99.90
23137;DHT22;11737;50.558;7.258;2022-09-01T06:53:50;18.40;99.90
23137;DHT22;11737;50.558;7.258;2022-09-01T06:56:19;18.60;99.90
23137;DHT22;11737;50.558;7.258;2022-09-01T06:58:47;18.70;99.90
23137;DHT22;11737;50.558;7.258;2022-09-01T07:01:16;18.70;99.90
23137;DHT22;11737;50.558;7.258;2022-09-01T07:03:47;18.90;99.90
23137;DHT22;11737;50.558;7.258;2022-09-01T07:06:18;18.90;99.90
23137;DHT22;11737;50.558;7.258;2022-09-01T07:08:47;19.00;99.90
23137;DHT22;11737;50.558;7.258;2022-09-01T07:11:20;19.10;99.90
23137;DHT22;11737;50.558;7.258;2022-09-01T07:13:51;19.20;99.90
23137;DHT22;11737;50.558;7.258;2022-09-01T07:16:24;19.30;99.90
23137;DHT22;11737;50.558;7.258;2022-09-01T07:18:56;19.40;99.90
23137;DHT22;11737;50.558;7.258;2022-09-01T07:21:25;19.60;99.90
23137;DHT22;11737;50.558;7.258;2022-09-01T07:23:52;19.70;99.70
23137;DHT22;11737;50.558;7.258;2022-09-01T07:26:20;19.80;99.70
23137;DHT22;11737;50.558;7.258;2022-09-01T07:28:50;19.80;99.40
23137;DHT22;11737;50.558;7.258;2022-09-01T07:31:20;19.90;99.50
23137;DHT22;11737;50.558;7.258;2022-09-01T07:33:50;19.90;99.20
23137;DHT22;11737;50.558;7.258;2022-09-01T07:36:20;20.00;99.10
23137;DHT22;11737;50.558;7.258;2022-09-01T07:38:48;20.10;99.00
23137;DHT22;11737;50.558;7.258;2022-09-01T07:41:17;20.30;98.70
23137;DHT22;11737;50.558;7.258;2022-09-01T07:43:45;20.40;98.40
23137;DHT22;11737;50.558;7.258;2022-09-01T07:46:12;20.50;98.20
23137;DHT22;11737;50.558;7.258;2022-09-01T07:48:40;20.60;98.00
23137;DHT22;11737;50.558;7.258;2022-09-01T07:51:10;20.70;97.90
23137;DHT22;11737;50.558;7.258;2022-09-01T07:53:37;20.80;97.80
23137;DHT22;11737;50.558;7.258;2022-09-01T07:56:09;20.90;97.70
23137;DHT22;11737;50.558;7.258;2022-09-01T07:58:38;21.10;97.70
23137;DHT22;11737;50.558;7.258;2022-09-01T08:01:09;21.20;97.30
23137;DHT22;11737;50.558;7.258;2022-09-01T08:03:39;21.40;97.00
23137;DHT22;11737;50.558;7.258;2022-09-01T08:06:10;21.50;96.50
23137;DHT22;11737;50.558;7.258;2022-09-01T08:08:39;21.60;96.20
23137;DHT22;11737;50.558;7.258;2022-09-01T08:11:08;21.70;96.30
23137;DHT22;11737;50.558;7.258;2022-09-01T08:13:36;21.80;95.80
23137;DHT22;11737;50.558;7.258;2022-09-01T08:16:05;21.90;95.30
23137;DHT22;11737;50.558;7.258;2022-09-01T08:18:34;21.90;95.30
23137;DHT22;11737;50.558;7.258;2022-09-01T08:21:10;22.00;95.00
23137;DHT22;11737;50.558;7.258;2022-09-01T08:23:38;22.10;94.80
23137;DHT22;11737;50.558;7.258;2022-09-01T08:26:15;22.30;94.90
23137;DHT22;11737;50.558;7.258;2022-09-01T08:28:39;22.30;94.70
23137;DHT22;11737;50.558;7.258;2022-09-01T08:31:12;22.40;94.50
23137;DHT22;11737;50.558;7.258;2022-09-01T08:33:41;22.50;93.80
23137;DHT22;11737;50.558;7.258;2022-09-01T08:36:10;22.60;93.80
23137;DHT22;11737;50.558;7.258;2022-09-01T08:38:40;22.60;93.50
23137;DHT22;11737;50.558;7.258;2022-09-01T08:41:31;22.80;92.80
23137;DHT22;11737;50.558;7.258;2022-09-01T08:46:48;22.90;92.50
23137;DHT22;11737;50.558;7.258;2022-09-01T08:49:21;22.90;92.20
23137;DHT22;11737;50.558;7.258;2022-09-01T08:51:56;23.10;91.90
23137;DHT22;11737;50.558;7.258;2022-09-01T08:54:26;23.10;92.20
23137;DHT22;11737;50.558;7.258;2022-09-01T08:57:00;23.20;92.00
23137;DHT22;11737;50.558;7.258;2022-09-01T08:59:27;23.20;91.90
23137;DHT22;11737;50.558;7.258;2022-09-01T09:02:12;23.30;91.60
23137;DHT22;11737;50.558;7.258;2022-09-01T09:10:31;23.50;91.10
23137;DHT22;11737;50.558;7.258;2022-09-01T09:12:56;23.60;90.60
23137;DHT22;11737;50.558;7.258;2022-09-01T09:15:26;23.70;90.30
23137;DHT22;11737;50.558;7.258;2022-09-01T09:17:56;23.80;90.10
23137;DHT22;11737;50.558;7.258;2022-09-01T09:20:27;23.90;90.10
23137;DHT22;11737;50.558;7.258;2022-09-01T09:22:55;24.00;90.20
23137;DHT22;11737;50.558;7.258;2022-09-01T09:25:23;24.10;90.20
23137;DHT22;11737;50.558;7.258;2022-09-01T09:27:51;24.20;89.20
23137;DHT22;11737;50.558;7.258;2022-09-01T09:30:25;24.30;89.80
23137;DHT22;11737;50.558;7.258;2022-09-01T09:33:05;24.40;88.30
23137;DHT22;11737;50.558;7.258;2022-09-01T09:35:43;24.40;86.80
23137;DHT22;11737;50.558;7.258;2022-09-01T09:41:18;24.50;88.50
23137;DHT22;11737;50.558;7.258;2022-09-01T09:46:46;24.70;87.40
23137;DHT22;11737;50.558;7.258;2022-09-01T09:49:19;24.80;86.20
23137;DHT22;11737;50.558;7.258;2022-09-01T09:54:40;25.10;87.60
23137;DHT22;11737;50.558;7.258;2022-09-01T09:57:11;25.30;87.10
23137;DHT22;11737;50.558;7.258;2022-09-01T09:59:48;25.40;85.50
23137;DHT22;11737;50.558;7.258;2022-09-01T10:02:38;25.50;85.20
23137;DHT22;11737;50.558;7.258;2022-09-01T10:08:56;25.90;84.00
23137;DHT22;11737;50.558;7.258;2022-09-01T10:10:47;26.10;84.40
23137;DHT22;11737;50.558;7.258;2022-09-01T10:13:17;26.30;83.90
23137;DHT22;11737;50.558;7.258;2022-09-01T10:15:48;26.50;83.40
23137;DHT22;11737;50.558;7.258;2022-09-01T10:18:19;26.70;82.60
23137;DHT22;11737;50.558;7.258;2022-09-01T10:21:02;26.80;81.40
23137;DHT22;11737;50.558;7.258;2022-09-01T10:23:31;26.80;80.80
23137;DHT22;11737;50.558;7.258;2022-09-01T10:26:04;26.80;80.00
23137;DHT22;11737;50.558;7.258;2022-09-01T10:28:32;26.80;80.10
23137;DHT22;11737;50.558;7.258;2022-09-01T10:31:00;26.80;79.20
23137;DHT22;11737;50.558;7.258;2022-09-01T10:33:28;26.80;78.60
23137;DHT22;11737;50.558;7.258;2022-09-01T10:35:56;27.00;78.60
23137;DHT22;11737;50.558;7.258;2022-09-01T10:38:26;27.30;78.40
23137;DHT22;11737;50.558;7.258;2022-09-01T10:40:56;27.70;77.40
23137;DHT22;11737;50.558;7.258;2022-09-01T10:43:45;27.90;75.80
23137;DHT22;11737;50.558;7.258;2022-09-01T10:48:51;27.90;74.60
23137;DHT22;11737;50.558;7.258;2022-09-01T10:53:52;28.10;74.00
23137;DHT22;11737;50.558;7.258;2022-09-01T10:56:48;28.30;73.90
23137;DHT22;11737;50.558;7.258;2022-09-01T10:59:25;28.50;73.10
23137;DHT22;11737;50.558;7.258;2022-09-01T11:02:03;28.60;72.70
23137;DHT22;11737;50.558;7.258;2022-09-01T11:07:05;28.60;70.80
23137;DHT22;11737;50.558;7.258;2022-09-01T11:09:37;28.60;70.90
23137;DHT22;11737;50.558;7.258;2022-09-01T11:15:00;28.90;70.70
23137;DHT22;11737;50.558;7.258;2022-09-01T11:17:36;29.00;70.10
23137;DHT22;11737;50.558;7.258;2022-09-01T11:20:09;29.10;69.60
23137;DHT22;11737;50.558;7.258;2022-09-01T11:31:15;29.70;66.00
23137;DHT22;11737;50.558;7.258;2022-09-01T11:47:46;29.60;64.60
23137;DHT22;11737;50.558;7.258;2022-09-01T11:50:27;29.70;63.90
23137;DHT22;11737;50.558;7.258;2022-09-01T11:53:19;29.90;64.50
23137;DHT22;11737;50.558;7.258;2022-09-01T11:55:47;30.00;63.30
23137;DHT22;11737;50.558;7.258;2022-09-01T11:58:31;30.20;62.80
23137;DHT22;11737;50.558;7.258;2022-09-01T12:01:14;30.30;62.70
23137;DHT22;11737;50.558;7.258;2022-09-01T12:03:45;30.40;61.60
23137;DHT22;11737;50.558;7.258;2022-09-01T12:06:19;30.60;62.70
23137;DHT22;11737;50.558;7.258;2022-09-01T12:08:56;30.70;61.40
23137;DHT22;11737;50.558;7.258;2022-09-01T12:11:27;30.80;60.20
23137;DHT22;11737;50.558;7.258;2022-09-01T12:14:01;30.90;60.30
23137;DHT22;11737;50.558;7.258;2022-09-01T12:16:29;31.10;59.30
23137;DHT22;11737;50.558;7.258;2022-09-01T12:18:58;31.10;59.10
23137;DHT22;11737;50.558;7.258;2022-09-01T12:21:29;31.20;60.00
23137;DHT22;11737;50.558;7.258;2022-09-01T12:24:17;31.30;58.60
23137;DHT22;11737;50.558;7.258;2022-09-01T12:26:46;31.20;58.40
23137;DHT22;11737;50.558;7.258;2022-09-01T12:29:16;31.00;58.30
23137;DHT22;11737;50.558;7.258;2022-09-01T12:31:46;30.60;58.50
23137;DHT22;11737;50.558;7.258;2022-09-01T12:39:46;29.40;59.80
23137;DHT22;11737;50.558;7.258;2022-09-01T12:42:25;29.30;60.50
23137;DHT22;11737;50.558;7.258;2022-09-01T12:44:59;29.40;60.70
23137;DHT22;11737;50.558;7.258;2022-09-01T12:52:47;30.10;61.40
23137;DHT22;11737;50.558;7.258;2022-09-01T12:55:28;30.30;60.00
23137;DHT22;11737;50.558;7.258;2022-09-01T12:57:58;30.40;59.30
23137;DHT22;11737;50.558;7.258;2022-09-01T13:00:32;30.60;59.30
23137;DHT22;11737;50.558;7.258;2022-09-01T13:03:14;30.80;58.80
23137;DHT22;11737;50.558;7.258;2022-09-01T13:05:45;30.90;58.80
23137;DHT22;11737;50.558;7.258;2022-09-01T13:08:21;31.10;58.20
23137;DHT22;11737;50.558;7.258;2022-09-01T13:10:53;31.20;58.00
23137;DHT22;11737;50.558;7.258;2022-09-01T13:13:22;31.30;57.20
23137;DHT22;11737;50.558;7.258;2022-09-01T13:15:52;31.50;56.80
23137;DHT22;11737;50.558;7.258;2022-09-01T13:18:22;31.50;56.50
23137;DHT22;11737;50.558;7.258;2022-09-01T13:20:51;31.50;56.00
23137;DHT22;11737;50.558;7.258;2022-09-01T13:23:20;31.40;55.90
23137;DHT22;11737;50.558;7.258;2022-09-01T13:25:48;31.40;56.10
23137;DHT22;11737;50.558;7.258;2022-09-01T13:28:16;31.40;55.10
23137;DHT22;11737;50.558;7.258;2022-09-01T13:30:47;31.50;54.90
23137;DHT22;11737;50.558;7.258;2022-09-01T13:33:14;31.60;54.60
23137;DHT22;11737;50.558;7.258;2022-09-01T13:35:42;31.60;54.80
23137;DHT22;11737;50.558;7.258;2022-09-01T13:38:09;31.60;55.20
23137;DHT22;11737;50.558;7.258;2022-09-01T13:40:39;31.70;53.90
23137;DHT22;11737;50.558;7.258;2022-09-01T13:43:06;31.70;55.50
23137;DHT22;11737;50.558;7.258;2022-09-01T13:45:34;31.60;56.40
23137;DHT22;11737;50.558;7.258;2022-09-01T13:48:02;31.60;56.50
23137;DHT22;11737;50.558;7.258;2022-09-01T13:50:30;31.60;55.20
23137;DHT22;11737;50.558;7.258;2022-09-01T13:52:58;31.60;54.70
23137;DHT22;11737;50.558;7.258;2022-09-01T13:55:28;31.60;55.20
23137;DHT22;11737;50.558;7.258;2022-09-01T13:57:56;31.50;54.40
23137;DHT22;11737;50.558;7.258;2022-09-01T14:00:27;31.60;53.40
23137;DHT22;11737;50.558;7.258;2022-09-01T14:02:58;31.60;55.30
23137;DHT22;11737;50.558;7.258;2022-09-01T14:05:31;31.70;54.10
23137;DHT22;11737;50.558;7.258;2022-09-01T14:08:00;31.80;53.50
23137;DHT22;11737;50.558;7.258;2022-09-01T14:10:29;31.80;51.60
23137;DHT22;11737;50.558;7.258;2022-09-01T14:13:00;31.90;51.70
23137;DHT22;11737;50.558;7.258;2022-09-01T14:15:27;32.10;53.40
23137;DHT22;11737;50.558;7.258;2022-09-01T14:17:56;32.20;52.30
23137;DHT22;11737;50.558;7.258;2022-09-01T14:20:27;32.20;52.30
23137;DHT22;11737;50.558;7.258;2022-09-01T14:22:56;32.30;52.80
23137;DHT22;11737;50.558;7.258;2022-09-01T14:25:24;32.30;54.90
23137;DHT22;11737;50.558;7.258;2022-09-01T14:27:52;32.30;54.90
23137;DHT22;11737;50.558;7.258;2022-09-01T14:30:22;32.40;55.00
23137;DHT22;11737;50.558;7.258;2022-09-01T14:32:50;32.50;55.20
23137;DHT22;11737;50.558;7.258;2022-09-01T14:35:20;32.80;54.70
23137;DHT22;11737;50.558;7.258;2022-09-01T14:37:51;32.90;53.80
23137;DHT22;11737;50.558;7.258;2022-09-01T14:40:20;33.50;53.30
23137;DHT22;11737;50.558;7.258;2022-09-01T14:42:51;33.90;52.40
23137;DHT22;11737;50.558;7.258;2022-09-01T14:45:26;34.40;50.80
23137;DHT22;11737;50.558;7.258;2022-09-01T14:47:52;34.80;48.80
23137;DHT22;11737;50.558;7.258;2022-09-01T14:50:22;35.30;47.90
23137;DHT22;11737;50.558;7.258;2022-09-01T14:52:53;35.70;47.20
23137;DHT22;11737;50.558;7.258;2022-09-01T14:55:22;36.20;48.40
23137;DHT22;11737;50.558;7.258;2022-09-01T14:57:51;36.60;47.40
23137;DHT22;11737;50.558;7.258;2022-09-01T15:00:22;36.80;45.30
23137;DHT22;11737;50.558;7.258;2022-09-01T15:02:52;37.00;45.40
23137;DHT22;11737;50.558;7.258;2022-09-01T15:05:21;37.50;44.90
23137;DHT22;11737;50.558;7.258;2022-09-01T15:07:48;37.80;44.20
23137;DHT22;11737;50.558;7.258;2022-09-01T15:10:19;38.20;44.20
23137;DHT22;11737;50.558;7.258;2022-09-01T15:12:47;38.10;44.50
23137;DHT22;11737;50.558;7.258;2022-09-01T15:15:15;38.10;43.10
23137;DHT22;11737;50.558;7.258;2022-09-01T15:17:43;38.40;43.40
23137;DHT22;11737;50.558;7.258;2022-09-01T15:20:11;38.50;42.60
23137;DHT22;11737;50.558;7.258;2022-09-01T15:22:56;38.80;41.60
23137;DHT22;11737;50.558;7.258;2022-09-01T15:25:24;38.90;41.30
23137;DHT22;11737;50.558;7.258;2022-09-01T15:27:51;38.90;41.80
23137;DHT22;11737;50.558;7.258;2022-09-01T15:30:20;39.10;41.70
23137;DHT22;11737;50.558;7.258;2022-09-01T15:32:50;39.20;40.60
23137;DHT22;11737;50.558;7.258;2022-09-01T15:35:19;38.70;39.90
23137;DHT22;11737;50.558;7.258;2022-09-01T15:37:49;37.60;39.80
23137;DHT22;11737;50.558;7.258;2022-09-01T15:40:18;36.80;41.50
23137;DHT22;11737;50.558;7.258;2022-09-01T15:42:46;36.30;41.10
23137;DHT22;11737;50.558;7.258;2022-09-01T15:45:16;35.80;41.90
23137;DHT22;11737;50.558;7.258;2022-09-01T15:47:45;35.30;42.80
23137;DHT22;11737;50.558;7.258;2022-09-01T15:50:18;34.80;42.80
23137;DHT22;11737;50.558;7.258;2022-09-01T15:52:56;34.10;44.00
23137;DHT22;11737;50.558;7.258;2022-09-01T15:55:50;33.50;44.90
23137;DHT22;11737;50.558;7.258;2022-09-01T15:57:58;32.80;44.70
23137;DHT22;11737;50.558;7.258;2022-09-01T16:00:27;32.30;46.80
23137;DHT22;11737;50.558;7.258;2022-09-01T16:02:55;31.90;47.50
23137;DHT22;11737;50.558;7.258;2022-09-01T16:05:24;32.40;48.50
23137;DHT22;11737;50.558;7.258;2022-09-01T16:07:53;33.50;47.00
23137;DHT22;11737;50.558;7.258;2022-09-01T16:10:21;35.10;45.20
23137;DHT22;11737;50.558;7.258;2022-09-01T16:12:49;36.30;43.50
23137;DHT22;11737;50.558;7.258;2022-09-01T16:15:20;37.80;42.60
23137;DHT22;11737;50.558;7.258;2022-09-01T16:18:02;38.10;40.30
23137;DHT22;11737;50.558;7.258;2022-09-01T16:20:35;38.30;40.50
23137;DHT22;11737;50.558;7.258;2022-09-01T16:23:19;37.70;39.40
23137;DHT22;11737;50.558;7.258;2022-09-01T16:25:47;36.60;39.80
23137;DHT22;11737;50.558;7.258;2022-09-01T16:28:24;35.30;40.40
23137;DHT22;11737;50.558;7.258;2022-09-01T16:30:53;34.20;42.20
23137;DHT22;11737;50.558;7.258;2022-09-01T16:33:21;33.10;43.60
23137;DHT22;11737;50.558;7.258;2022-09-01T16:36:06;32.20;44.80
23137;DHT22;11737;50.558;7.258;2022-09-01T16:38:37;31.50;46.10
23137;DHT22;11737;50.558;7.258;2022-09-01T16:41:12;30.90;47.00
23137;DHT22;11737;50.558;7.258;2022-09-01T16:46:32;30.30;49.00
23137;DHT22;11737;50.558;7.258;2022-09-01T16:57:41;30.50;50.20
23137;DHT22;11737;50.558;7.258;2022-09-01T17:00:09;30.00;48.30
23137;DHT22;11737;50.558;7.258;2022-09-01T17:03:10;29.50;49.50
23137;DHT22;11737;50.558;7.258;2022-09-01T17:05:42;29.20;50.50
23137;DHT22;11737;50.558;7.258;2022-09-01T17:08:16;29.30;53.40
23137;DHT22;11737;50.558;7.258;2022-09-01T17:10:51;29.10;52.00